createdAt,value
2018-08-18T00:02:00.474Z,20.60
2018-08-18T00:04:31.317Z,20.60
2018-08-18T00:07:00.707Z,20.60
2018-08-18T00:09:29.232Z,20.60
2018-08-18T00:11:57.765Z,20.60
2018-08-18T00:14:26.517Z,20.60
2018-08-18T00:16:55.373Z,20.60
2018-08-18T00:19:25.370Z,20.60
2018-08-18T00:21:53.869Z,20.50
2018-08-18T00:24:22.409Z,20.50
2018-08-18T00:26:50.924Z,20.50
2018-08-18T00:29:19.425Z,20.50
2018-08-18T00:31:48.097Z,20.50
2018-08-18T00:34:16.590Z,20.40
2018-08-18T00:36:45.025Z,20.50
2018-08-18T00:39:13.796Z,20.40
2018-08-18T00:41:42.431Z,20.40
2018-08-18T00:44:11.722Z,20.40
2018-08-18T00:46:40.206Z,20.30
2018-08-18T00:49:08.675Z,20.30
2018-08-18T00:51:38.037Z,20.30
2018-08-18T00:54:07.581Z,20.30
2018-08-18T00:56:37.689Z,20.20
2018-08-18T00:59:06.264Z,20.20
2018-08-18T01:01:34.778Z,20.20
2018-08-18T01:04:07.805Z,20.20
2018-08-18T01:06:37.882Z,20.20
2018-08-18T01:09:09.424Z,20.20
2018-08-18T01:11:37.973Z,20.20
2018-08-18T01:14:22.934Z,20.10
2018-08-18T01:16:52.669Z,20.10
2018-08-18T01:19:22.266Z,20.00
2018-08-18T01:21:56.116Z,20.00
2018-08-18T01:24:24.927Z,20.00
2018-08-18T01:26:53.443Z,20.10
2018-08-18T01:29:21.909Z,20.00
2018-08-18T01:31:50.429Z,20.00
2018-08-18T01:34:18.901Z,20.00
2018-08-18T01:36:47.417Z,20.00
2018-08-18T01:39:16.205Z,19.90
2018-08-18T01:41:44.701Z,19.90
2018-08-18T01:44:14.512Z,19.90
2018-08-18T01:46:43.693Z,19.90
2018-08-18T01:49:30.553Z,19.90
2018-08-18T01:52:01.089Z,19.90
2018-08-18T01:54:29.822Z,19.80
2018-08-18T01:57:07.290Z,19.80
2018-08-18T01:59:36.318Z,19.80
2018-08-18T02:02:07.992Z,19.80
2018-08-18T02:04:36.489Z,19.70
2018-08-18T02:07:16.431Z,19.70
2018-08-18T02:09:44.957Z,19.70
2018-08-18T02:12:13.476Z,19.80
2018-08-18T02:14:42.049Z,19.70
2018-08-18T02:17:21.157Z,19.70
2018-08-18T02:19:49.719Z,19.70
2018-08-18T02:22:18.209Z,19.70
2018-08-18T02:24:47.026Z,19.60
2018-08-18T02:27:15.702Z,19.60
2018-08-18T02:29:49.009Z,19.50
2018-08-18T02:32:27.761Z,19.50
2018-08-18T02:34:56.865Z,19.40
2018-08-18T02:37:25.921Z,19.40
2018-08-18T02:39:54.465Z,19.40
2018-08-18T02:42:22.952Z,19.40
2018-08-18T02:44:51.785Z,19.40
2018-08-18T02:47:20.433Z,19.30
2018-08-18T02:49:49.849Z,19.40
2018-08-18T02:52:23.714Z,19.30
2018-08-18T02:54:55.755Z,19.40
2018-08-18T02:57:30.405Z,19.30
2018-08-18T03:00:00.233Z,19.30
2018-08-18T03:02:28.921Z,19.30
2018-08-18T03:04:57.434Z,19.30
2018-08-18T03:07:28.129Z,19.30
2018-08-18T03:09:56.561Z,19.30
2018-08-18T03:12:25.465Z,19.30
2018-08-18T03:14:53.928Z,19.30
2018-08-18T03:17:22.381Z,19.30
2018-08-18T03:19:50.925Z,19.20
2018-08-18T03:22:19.728Z,19.20
2018-08-18T03:24:48.211Z,19.20
2018-08-18T03:27:16.638Z,19.20
2018-08-18T03:29:50.513Z,19.20
2018-08-18T03:32:18.963Z,19.10
2018-08-18T03:34:47.394Z,19.10
2018-08-18T03:37:26.962Z,19.20
2018-08-18T03:39:55.609Z,19.20
2018-08-18T03:42:28.713Z,19.10
2018-08-18T03:44:57.393Z,19.00
2018-08-18T03:47:26.129Z,19.00
2018-08-18T03:49:54.659Z,19.00
2018-08-18T03:52:23.212Z,18.90
2018-08-18T03:54:51.685Z,18.80
2018-08-18T03:57:20.201Z,18.80
2018-08-18T03:59:48.701Z,18.80
2018-08-18T04:02:18.189Z,18.80
2018-08-18T04:04:48.313Z,18.80
2018-08-18T04:07:16.868Z,18.90
2018-08-18T04:09:45.445Z,18.90
2018-08-18T04:12:13.949Z,18.90
2018-08-18T04:14:43.501Z,18.90
2018-08-18T04:17:23.944Z,18.90
2018-08-18T04:19:52.405Z,18.90
2018-08-18T04:22:22.185Z,18.90
2018-08-18T04:24:50.634Z,18.90
2018-08-18T04:27:50.008Z,19.00
2018-08-18T04:30:20.086Z,19.00
2018-08-18T04:32:58.483Z,19.00
2018-08-18T04:35:28.032Z,19.10
2018-08-18T04:37:57.303Z,19.10
2018-08-18T04:40:26.069Z,19.20
2018-08-18T04:42:56.817Z,19.20
2018-08-18T04:45:25.318Z,19.20
2018-08-18T04:47:53.813Z,19.20
2018-08-18T04:50:22.654Z,19.30
2018-08-18T04:52:51.720Z,19.40
2018-08-18T04:55:20.445Z,19.40
2018-08-18T04:57:48.894Z,19.40
2018-08-18T05:00:17.391Z,19.60
2018-08-18T05:02:51.232Z,19.60
2018-08-18T05:05:22.807Z,19.70
2018-08-18T05:07:51.316Z,19.80
2018-08-18T05:10:20.869Z,19.90
2018-08-18T05:12:49.334Z,20.10
2018-08-18T05:15:18.949Z,20.20
2018-08-18T05:17:48.657Z,20.20
2018-08-18T05:20:22.825Z,20.20
2018-08-18T05:22:51.298Z,20.40
2018-08-18T05:25:26.343Z,20.50
2018-08-18T05:27:55.144Z,20.60
2018-08-18T05:30:23.693Z,20.70
2018-08-18T05:32:52.306Z,20.70
2018-08-18T05:35:20.781Z,20.70
2018-08-18T05:37:49.236Z,20.70
2018-08-18T05:40:17.749Z,20.70
2018-08-18T05:42:46.242Z,20.70
2018-08-18T05:45:25.094Z,20.70
2018-08-18T05:47:54.072Z,20.90
2018-08-18T05:50:24.315Z,21.00
2018-08-18T05:53:25.886Z,21.20
2018-08-18T05:55:54.469Z,21.30
2018-08-18T05:58:23.111Z,21.40
2018-08-18T06:00:56.869Z,21.70
2018-08-18T06:03:25.321Z,21.90
2018-08-18T06:05:53.869Z,22.00
2018-08-18T06:08:22.313Z,22.10
2018-08-18T06:10:50.826Z,22.20
2018-08-18T06:13:20.761Z,22.30
2018-08-18T06:16:07.404Z,22.60
2018-08-18T06:18:37.617Z,22.70
2018-08-18T06:21:06.901Z,22.80
2018-08-18T06:23:35.974Z,22.90
2018-08-18T06:26:04.489Z,23.20
2018-08-18T06:28:33.713Z,23.40
2018-08-18T06:31:02.218Z,23.60
2018-08-18T06:33:30.729Z,23.60
2018-08-18T06:35:59.285Z,23.80
2018-08-18T06:38:27.748Z,24.00
2018-08-18T06:40:58.506Z,24.20
2018-08-18T06:43:28.101Z,24.50
2018-08-18T06:45:56.612Z,24.70
2018-08-18T06:48:25.114Z,24.70
2018-08-18T06:50:53.594Z,25.10
2018-08-18T06:53:22.054Z,25.20
2018-08-18T06:55:50.481Z,25.20
2018-08-18T06:58:18.941Z,25.40
2018-08-18T07:00:47.409Z,25.70
2018-08-18T07:03:27.020Z,25.80
2018-08-18T07:05:55.579Z,25.90
2018-08-18T07:08:23.954Z,26.30
2018-08-18T07:10:52.423Z,26.50
2018-08-18T07:13:20.913Z,26.80
2018-08-18T07:15:49.399Z,27.00
2018-08-18T07:18:17.873Z,27.30
2018-08-18T07:20:46.497Z,27.30
2018-08-18T07:23:14.977Z,27.30
2018-08-18T07:25:49.378Z,27.30
2018-08-18T07:28:19.582Z,27.40
2018-08-18T07:30:48.087Z,27.10
2018-08-18T07:33:16.588Z,26.70
2018-08-18T07:35:45.125Z,27.00
2018-08-18T07:38:13.664Z,27.50
2018-08-18T07:40:43.601Z,27.70
2018-08-18T07:43:15.994Z,28.00
2018-08-18T07:45:44.645Z,28.40
2018-08-18T07:48:13.151Z,28.60
2018-08-18T07:50:41.734Z,28.30
2018-08-18T07:53:10.194Z,28.10
2018-08-18T07:55:38.707Z,28.40
2018-08-18T07:58:10.222Z,28.70
2018-08-18T08:00:39.193Z,28.50
2018-08-18T08:03:09.113Z,29.00
2018-08-18T08:05:37.609Z,29.20
2018-08-18T08:08:06.318Z,29.50
2018-08-18T08:10:34.889Z,29.40
2018-08-18T08:13:03.474Z,29.70
2018-08-18T08:15:31.929Z,30.00
2018-08-18T08:18:00.726Z,30.20
2018-08-18T08:20:29.231Z,30.40
2018-08-18T08:22:58.954Z,30.50
2018-08-18T08:25:27.469Z,30.70
2018-08-18T08:27:56.099Z,30.80
2018-08-18T08:30:25.726Z,31.00
2018-08-18T08:32:54.322Z,31.10
2018-08-18T08:35:22.891Z,30.60
2018-08-18T08:37:52.358Z,30.90
2018-08-18T08:40:21.848Z,31.10
2018-08-18T08:42:50.399Z,31.40
2018-08-18T08:45:19.907Z,31.40
2018-08-18T08:47:49.001Z,31.20
2018-08-18T08:50:21.609Z,31.30
2018-08-18T08:52:51.999Z,30.40
2018-08-18T08:55:21.743Z,30.70
2018-08-18T08:57:50.197Z,31.20
2018-08-18T09:00:18.793Z,31.50
2018-08-18T09:02:47.329Z,31.80
2018-08-18T09:05:15.874Z,32.10
2018-08-18T09:07:44.414Z,32.20
2018-08-18T09:10:13.986Z,32.20
2018-08-18T09:12:42.546Z,32.10
2018-08-18T09:15:12.121Z,31.80
2018-08-18T09:17:40.688Z,31.70
2018-08-18T09:20:15.482Z,31.50
2018-08-18T09:22:58.903Z,31.80
2018-08-18T09:25:28.478Z,31.70
2018-08-18T09:27:57.968Z,31.70
2018-08-18T09:30:28.002Z,31.60
2018-08-18T09:33:00.525Z,31.80
2018-08-18T09:35:29.166Z,31.40
2018-08-18T09:37:59.276Z,31.70
2018-08-18T09:40:28.978Z,32.00
2018-08-18T09:42:57.459Z,32.20
2018-08-18T09:45:26.653Z,32.70
2018-08-18T09:47:55.141Z,33.00
2018-08-18T09:50:23.597Z,33.10
2018-08-18T09:52:52.100Z,33.30
2018-08-18T09:55:20.600Z,33.20
2018-08-18T09:57:49.086Z,33.10
2018-08-18T10:00:17.653Z,33.00
2018-08-18T10:02:46.222Z,32.70
2018-08-18T10:05:14.693Z,32.80
2018-08-18T10:07:43.177Z,33.10
2018-08-18T10:10:13.278Z,33.40
2018-08-18T10:12:41.846Z,33.20
2018-08-18T10:15:10.416Z,33.70
2018-08-18T10:17:38.941Z,33.90
2018-08-18T10:20:07.670Z,33.40
2018-08-18T10:22:36.386Z,33.30
2018-08-18T10:25:05.517Z,33.30
2018-08-18T10:27:33.958Z,33.40
2018-08-18T10:30:02.407Z,33.60
2018-08-18T10:32:30.969Z,33.80
2018-08-18T10:34:59.496Z,34.20
2018-08-18T10:37:28.126Z,33.90
2018-08-18T10:40:01.846Z,33.60
2018-08-18T10:42:31.797Z,33.80
2018-08-18T10:45:00.269Z,33.90
2018-08-18T10:47:29.216Z,34.00
2018-08-18T10:50:08.674Z,33.80
2018-08-18T10:52:48.421Z,33.90
2018-08-18T10:55:17.797Z,34.20
2018-08-18T10:57:57.703Z,34.10
2018-08-18T11:00:27.553Z,34.30
2018-08-18T11:02:57.145Z,34.40
2018-08-18T11:05:26.500Z,34.50
2018-08-18T11:08:04.629Z,34.40
2018-08-18T11:10:38.106Z,33.90
2018-08-18T11:13:06.667Z,34.20
2018-08-18T11:15:35.205Z,34.20
2018-08-18T11:18:03.706Z,34.30
2018-08-18T11:20:34.252Z,34.50
2018-08-18T11:23:09.384Z,34.50
2018-08-18T11:25:46.820Z,34.20
2018-08-18T11:28:15.671Z,33.90
2018-08-18T11:30:44.218Z,33.30
2018-08-18T11:33:22.426Z,33.50
2018-08-18T11:35:50.974Z,33.70
2018-08-18T11:38:19.453Z,33.50
2018-08-18T11:40:48.137Z,33.80
2018-08-18T11:43:17.216Z,34.10
2018-08-18T11:45:46.043Z,34.30
2018-08-18T11:48:24.306Z,34.20
2018-08-18T11:50:53.949Z,34.10
2018-08-18T11:53:22.417Z,34.00
2018-08-18T11:55:50.912Z,34.00
2018-08-18T11:58:21.541Z,33.80
2018-08-18T12:00:51.438Z,33.10
2018-08-18T12:03:22.701Z,33.20
2018-08-18T12:05:55.133Z,32.90
2018-08-18T12:08:24.816Z,32.70
2018-08-18T12:10:54.691Z,32.60
2018-08-18T12:13:30.153Z,32.40
2018-08-18T12:16:04.699Z,32.40
2018-08-18T12:18:33.749Z,32.70
2018-08-18T12:21:03.577Z,32.80
2018-08-18T12:23:33.257Z,32.80
2018-08-18T12:26:05.741Z,32.90
2018-08-18T12:28:39.643Z,32.80
2018-08-18T12:31:10.347Z,32.70
2018-08-18T12:33:39.501Z,32.80
2018-08-18T12:36:08.051Z,32.80
2018-08-18T12:38:36.818Z,32.70
2018-08-18T12:41:05.900Z,32.70
2018-08-18T12:43:35.635Z,32.50
2018-08-18T12:46:05.178Z,32.10
2018-08-18T12:48:36.627Z,31.60
2018-08-18T12:51:05.707Z,31.20
2018-08-18T12:53:39.395Z,30.90
2018-08-18T12:56:08.302Z,30.80
2018-08-18T12:58:36.990Z,30.70
2018-08-18T13:01:05.359Z,30.60
2018-08-18T13:03:33.877Z,30.60
2018-08-18T13:06:02.311Z,30.60
2018-08-18T13:08:30.830Z,30.50
2018-08-18T13:10:59.341Z,30.60
2018-08-18T13:13:27.821Z,30.50
2018-08-18T13:15:56.854Z,30.40
2018-08-18T13:18:26.165Z,30.40
2018-08-18T13:20:55.913Z,30.30
2018-08-18T13:23:27.572Z,30.30
2018-08-18T13:25:56.633Z,30.00
2018-08-18T13:28:25.108Z,29.60
2018-08-18T13:30:53.653Z,29.30
2018-08-18T13:33:22.244Z,29.30
2018-08-18T13:35:50.879Z,29.20
2018-08-18T13:38:26.874Z,29.10
2018-08-18T13:40:55.630Z,29.20
2018-08-18T13:43:40.333Z,29.20
2018-08-18T13:46:10.837Z,29.40
2018-08-18T13:48:44.220Z,29.50
2018-08-18T13:51:13.923Z,29.70
2018-08-18T13:53:49.188Z,29.80
2018-08-18T13:56:17.876Z,29.90
2018-08-18T13:58:48.815Z,30.00
2018-08-18T14:01:42.236Z,30.00
2018-08-18T14:04:16.803Z,30.10
2018-08-18T14:06:50.697Z,30.10
2018-08-18T14:09:19.336Z,30.20
2018-08-18T14:11:47.866Z,30.20
2018-08-18T14:14:16.404Z,30.20
2018-08-18T14:16:44.899Z,30.30
2018-08-18T14:19:13.583Z,30.30
2018-08-18T14:21:42.165Z,30.30
2018-08-18T14:24:10.697Z,30.30
2018-08-18T14:26:46.332Z,30.30
2018-08-18T14:29:14.865Z,30.30
2018-08-18T14:31:43.402Z,30.20
2018-08-18T14:34:12.028Z,30.20
2018-08-18T14:39:31.431Z,30.20
2018-08-18T14:41:59.920Z,30.10
2018-08-18T14:44:28.433Z,30.10
2018-08-18T14:46:56.928Z,30.00
2018-08-18T14:49:25.392Z,29.90
2018-08-18T14:51:53.922Z,29.90
2018-08-18T14:54:26.307Z,29.80
2018-08-18T14:56:54.899Z,29.80
2018-08-18T14:59:27.862Z,29.80
2018-08-18T15:01:56.538Z,29.70
2018-08-18T15:04:25.079Z,29.60
2018-08-18T15:06:53.531Z,29.60
2018-08-18T15:09:48.262Z,29.60
2018-08-18T15:12:16.733Z,29.60
2018-08-18T15:14:45.177Z,29.40
2018-08-18T15:17:13.697Z,29.40
2018-08-18T15:19:42.209Z,29.40
2018-08-18T15:22:12.127Z,29.40
2018-08-18T15:24:40.699Z,29.40
2018-08-18T15:27:09.277Z,29.50
2018-08-18T15:29:37.724Z,29.50
2018-08-18T15:32:06.373Z,29.50
2018-08-18T15:34:34.845Z,29.50
2018-08-18T15:37:03.406Z,29.50
2018-08-18T15:39:31.914Z,29.50
2018-08-18T15:42:01.159Z,29.40
2018-08-18T15:44:29.677Z,29.40
2018-08-18T15:46:58.481Z,29.30
2018-08-18T15:49:27.052Z,29.30
2018-08-18T15:51:55.893Z,29.30
2018-08-18T15:54:25.090Z,29.30
2018-08-18T15:56:54.034Z,29.20
2018-08-18T15:59:22.631Z,29.30
2018-08-18T16:01:51.084Z,29.30
2018-08-18T16:04:19.574Z,29.30
2018-08-18T16:06:48.046Z,29.40
2018-08-18T16:09:16.486Z,29.60
2018-08-18T16:11:44.965Z,29.60
2018-08-18T16:14:13.740Z,29.60
2018-08-18T16:16:55.517Z,29.60
2018-08-18T16:19:24.262Z,29.60
2018-08-18T16:21:53.152Z,29.60
2018-08-18T16:24:30.914Z,29.50
2018-08-18T16:27:00.205Z,29.50
2018-08-18T16:29:28.730Z,29.50
2018-08-18T16:32:12.149Z,29.50
2018-08-18T16:34:41.193Z,29.40
2018-08-18T16:37:09.706Z,29.30
2018-08-18T16:39:38.188Z,29.30
2018-08-18T16:42:06.790Z,29.20
2018-08-18T16:44:35.261Z,29.20
2018-08-18T16:47:04.845Z,29.10
2018-08-18T16:49:33.433Z,29.00
2018-08-18T16:52:02.133Z,29.00
2018-08-18T16:54:31.586Z,28.90
2018-08-18T16:57:00.264Z,28.80
2018-08-18T16:59:29.273Z,28.70
2018-08-18T17:01:57.899Z,28.70
2018-08-18T17:04:31.669Z,28.60
2018-08-18T17:07:01.237Z,28.50
2018-08-18T17:09:38.959Z,28.40
2018-08-18T17:12:16.229Z,28.30
2018-08-18T17:14:44.831Z,28.20
2018-08-18T17:17:13.357Z,28.10
2018-08-18T17:19:41.952Z,28.10
2018-08-18T17:22:11.717Z,28.00
2018-08-18T17:24:40.206Z,28.00
2018-08-18T17:27:08.717Z,27.90
2018-08-18T17:29:40.518Z,27.80
2018-08-18T17:32:09.612Z,27.70
2018-08-18T17:34:38.223Z,27.50
2018-08-18T17:37:06.997Z,27.50
2018-08-18T17:39:35.570Z,27.40
2018-08-18T17:42:05.059Z,27.30
2018-08-18T17:44:33.733Z,27.30
2018-08-18T17:47:05.614Z,27.20
2018-08-18T17:49:46.985Z,27.10
2018-08-18T17:52:15.588Z,27.00
2018-08-18T17:54:53.694Z,27.00
2018-08-18T17:57:22.161Z,26.80
2018-08-18T17:59:50.682Z,26.40
2018-08-18T18:02:19.211Z,26.40
2018-08-18T18:04:49.376Z,26.30
2018-08-18T18:07:17.997Z,26.30
2018-08-18T18:09:46.475Z,26.30
2018-08-18T18:12:23.660Z,26.30
2018-08-18T18:14:52.206Z,26.30
2018-08-18T18:17:21.831Z,26.30
2018-08-18T18:19:50.722Z,26.30
2018-08-18T18:22:19.387Z,26.20
2018-08-18T18:24:49.232Z,26.10
2018-08-18T18:27:17.984Z,26.10
2018-08-18T18:29:46.517Z,26.10
2018-08-18T18:32:15.022Z,26.10
2018-08-18T18:34:43.609Z,26.00
2018-08-18T18:37:12.221Z,25.80
2018-08-18T18:39:51.939Z,25.70
2018-08-18T18:42:20.441Z,25.70
2018-08-18T18:44:49.221Z,25.60
2018-08-18T18:47:17.698Z,25.50
2018-08-18T18:49:46.216Z,25.40
2018-08-18T18:52:14.818Z,25.30
2018-08-18T18:54:43.313Z,25.10
2018-08-18T18:57:11.859Z,25.10
2018-08-18T18:59:47.634Z,25.00
2018-08-18T19:02:16.381Z,25.10
2018-08-18T19:04:44.854Z,25.00
2018-08-18T19:07:13.341Z,25.00
2018-08-18T19:09:41.885Z,24.90
2018-08-18T19:12:10.384Z,24.80
2018-08-18T19:14:38.900Z,24.70
2018-08-18T19:17:07.412Z,24.60
2018-08-18T19:19:35.884Z,24.60
2018-08-18T19:22:08.394Z,24.50
2018-08-18T19:24:36.860Z,24.40
2018-08-18T19:27:05.348Z,24.30
2018-08-18T19:29:33.854Z,24.30
2018-08-18T19:32:02.806Z,24.20
2018-08-18T19:34:31.373Z,24.20
2018-08-18T19:37:04.702Z,24.10
2018-08-18T19:39:34.256Z,24.00
2018-08-18T19:42:23.646Z,24.00
2018-08-18T19:44:52.918Z,23.90
2018-08-18T19:47:41.005Z,23.90
2018-08-18T19:50:09.560Z,23.90
2018-08-18T19:52:38.026Z,23.80
2018-08-18T19:55:07.129Z,23.80
2018-08-18T19:57:36.627Z,23.70
2018-08-18T20:00:13.987Z,23.70
2018-08-18T20:03:12.785Z,23.60
2018-08-18T20:05:41.302Z,23.50
2018-08-18T20:08:09.839Z,23.50
2018-08-18T20:10:45.299Z,23.50
2018-08-18T20:13:14.490Z,23.40
2018-08-18T20:15:46.030Z,23.40
2018-08-18T20:18:14.565Z,23.40
2018-08-18T20:20:43.097Z,23.30
2018-08-18T20:23:13.445Z,23.30
2018-08-18T20:25:41.913Z,23.30
2018-08-18T20:28:10.486Z,23.30
2018-08-18T20:30:39.003Z,23.20
2018-08-18T20:33:07.719Z,23.20
2018-08-18T20:35:36.196Z,23.10
2018-08-18T20:38:04.766Z,23.10
2018-08-18T20:40:33.273Z,23.10
2018-08-18T20:43:01.845Z,23.10
2018-08-18T20:45:48.673Z,23.10
2018-08-18T20:48:20.026Z,23.00
2018-08-18T20:50:48.546Z,23.00
2018-08-18T20:53:17.627Z,22.90
2018-08-18T20:55:57.625Z,22.90
2018-08-18T20:58:26.546Z,22.80
2018-08-18T21:00:55.072Z,22.70
2018-08-18T21:03:34.573Z,22.60
2018-08-18T21:06:03.512Z,22.50
2018-08-18T21:08:31.945Z,22.50
2018-08-18T21:11:00.562Z,22.40
2018-08-18T21:13:29.087Z,22.40
2018-08-18T21:15:57.526Z,22.40
2018-08-18T21:18:25.993Z,22.30
2018-08-18T21:20:54.461Z,22.30
2018-08-18T21:23:24.470Z,22.30
2018-08-18T21:25:53.678Z,22.20
2018-08-18T21:28:24.885Z,22.20
2018-08-18T21:30:53.369Z,22.20
2018-08-18T21:33:24.886Z,22.10
2018-08-18T21:35:53.744Z,22.10
2018-08-18T21:38:22.224Z,22.20
2018-08-18T21:40:50.702Z,22.00
2018-08-18T21:43:29.995Z,22.10
2018-08-18T21:45:58.565Z,22.10
2018-08-18T21:48:38.197Z,22.10
2018-08-18T21:51:06.694Z,22.00
2018-08-18T21:53:35.134Z,22.00
2018-08-18T21:56:03.650Z,22.00
2018-08-18T21:58:32.139Z,21.90
2018-08-18T22:01:05.875Z,21.90
2018-08-18T22:03:34.374Z,21.80
2018-08-18T22:06:02.852Z,21.80
2018-08-18T22:08:31.473Z,21.70
2018-08-18T22:10:59.956Z,21.70
2018-08-18T22:13:29.377Z,21.70
2018-08-18T22:15:57.962Z,21.70
2018-08-18T22:18:26.451Z,21.60
2018-08-18T22:20:55.048Z,21.60
2018-08-18T22:23:23.709Z,21.60
2018-08-18T22:25:52.229Z,21.60
2018-08-18T22:28:21.685Z,21.50
2018-08-18T22:30:50.622Z,21.50
2018-08-18T22:33:19.245Z,21.40
2018-08-18T22:35:53.930Z,21.40
2018-08-18T22:58:15.666Z,20.90
2018-08-18T23:00:47.051Z,20.90
2018-08-18T23:03:15.561Z,20.90
2018-08-18T23:05:44.088Z,20.80
2018-08-18T23:08:12.577Z,20.80
2018-08-18T23:10:41.054Z,20.80
2018-08-18T23:13:10.725Z,20.80
2018-08-18T23:15:39.221Z,20.80
2018-08-18T23:18:07.729Z,20.70
2018-08-18T23:20:36.354Z,20.70
2018-08-18T23:23:04.876Z,20.70
2018-08-18T23:25:34.537Z,20.60
2018-08-18T23:28:03.009Z,20.50
2018-08-18T23:30:35.721Z,20.50
2018-08-18T23:33:05.789Z,20.40
2018-08-18T23:35:34.576Z,20.40
2018-08-18T23:38:03.288Z,20.30
2018-08-18T23:40:31.857Z,20.30
2018-08-18T23:43:00.386Z,20.30
2018-08-18T23:45:38.777Z,20.30
2018-08-18T23:48:09.429Z,20.20
2018-08-18T23:50:38.713Z,20.20
2018-08-18T23:53:08.609Z,20.30
2018-08-18T23:55:46.313Z,20.30
2018-08-18T23:58:14.910Z,20.20
